Terminal Aerodrome Forecast
Issued by NWS

Home | Current Version | Previous Version | Text Only | Print | Product List | Glossary On
Versions: 1 2 3 4 5 6 7 8 9 10 11 12 13 14 15 16 17
000
FTUS42 KMLB 250700 AAA
TAFFPR
TAF AMD
KFPR 250701Z 2507/2606 30009KT P6SM FEW030 OVC040
      TEMPO 2507/2508 5SM SHRA
     FM251200 32006KT P6SM BKN060
     FM260300 02005KT P6SM SCT010 BKN025=

USA.gov is the U.S. government's official web portal to all federal, state and local government web resources and services.